Terminal Aerodrome Forecast
Issued by NWS

Home | Current Version | Previous Version | Text Only | Print | Product List | Glossary On
Versions: 1 2 3 4 5 6 7 8 9 10 11 12 13 14 15 16 17 18 19 20 21 22 23 24 25 26 27 28 29 30 31 32 33 34 35 36 37 38 39 40 41 42 43 44 45 46 47 48 49 50
000
FTUS43 KFGF 111720
TAFTVF
TAF
KTVF 111720Z 1118/1218 34024G36KT 4SM BLSN BKN015 OVC025
      TEMPO 1118/1120 1 1/2SM -SN BLSN OVC012
     FM112000 34021G32KT P6SM BKN025
     FM120200 33010KT P6SM SCT200
     FM121100 25005KT P6SM BKN030=

USA.gov is the U.S. government's official web portal to all federal, state and local government web resources and services.